首页
METAR-TAF:

METAR-TAF

机场 :

米兰-马尔彭萨机场

米蘭, 意大利

纬度: 45-37N, 经度: 008-44E, 海拔: 234米

当前天气观测

该预报发布于22分钟前的06:50 UTC
风速4节,风向
温度 7°C
湿度 100%
气压 1002 hPa
能見度: 9000
多云层高于4000英尺
小雨

METAR: LIMC 170650Z 01004KT 9000 -RA BKN040 07/07 Q1002 NOSIG

时间: 08:12 (07:12 UTC)

预报

该预报发布于2小时和12分钟前的05:00 UTC
预报有效从17日的 06点(UTC)到 18日的 12点(UTC)
风速5节,风向多变
能見度: 7000
散云层高于1500英尺
多云层高于5000英尺
短暂存在
从 17日的 06点(UTC)到 17日的 14点(UTC)
能見度: 4000
几率 40% :
短暂存在
从 17日的 20点(UTC)到 18日的 02点(UTC)
能見度: 4000
阵雨

TAF: LIMC 170500Z 1706/1812 VRB05KT 7000 SCT015 BKN050 TEMPO 1706/1714 4000 RA PROB40 TEMPO 1720/1802 4000 SHRA

超过4000个机场的气象观测和天气预报(METAR&TAF报告)。

可查询的气象台以黄色和红色小点在地图上表示。

将鼠标移到小点上方,可查看气象台名称。

然后点击查看天气观测和预报。

如需切换地图:点击带黑十字的绿色按钮放大地图;点击带横线的绿色按钮缩小地图;或者点击绿色箭头查看邻近地区的地图。


METAR-TAF: